createdAt,value
2019-04-28T00:00:42.279Z,0.60
2019-04-28T00:03:15.606Z,0.42
2019-04-28T00:05:51.026Z,0.40
2019-04-28T00:08:24.130Z,0.50
2019-04-28T00:10:57.470Z,0.50
2019-04-28T00:13:32.146Z,0.30
2019-04-28T00:16:05.614Z,0.40
2019-04-28T00:18:39.195Z,0.30
2019-04-28T00:21:12.511Z,0.37
2019-04-28T00:23:45.907Z,0.40
2019-04-28T00:26:21.160Z,0.60
2019-04-28T00:28:54.498Z,0.53
2019-04-28T00:31:27.851Z,0.60
2019-04-28T00:34:01.513Z,0.70
2019-04-28T00:36:34.950Z,0.68
2019-04-28T00:39:08.354Z,0.30
2019-04-28T00:41:42.162Z,0.70
2019-04-28T00:44:15.639Z,0.60
2019-04-28T00:46:51.104Z,0.60
2019-04-28T00:49:24.370Z,0.50
2019-04-28T00:51:58.037Z,0.47
2019-04-28T00:54:31.755Z,0.70
2019-04-28T00:57:05.184Z,0.40
2019-04-28T00:59:50.929Z,0.50
2019-04-28T01:02:13.565Z,0.50
2019-04-28T01:04:46.935Z,0.68
2019-04-28T01:07:21.280Z,0.60
2019-04-28T01:09:54.647Z,0.62
2019-04-28T01:12:28.346Z,0.50
2019-04-28T01:15:04.692Z,0.40
2019-04-28T01:17:39.772Z,0.50
2019-04-28T01:20:13.258Z,0.55
2019-04-28T01:22:46.621Z,0.50
2019-04-28T01:25:20.361Z,0.40
2019-04-28T01:27:53.835Z,0.50
2019-04-28T01:30:27.143Z,0.30
2019-04-28T01:33:00.524Z,0.40
2019-04-28T01:35:33.854Z,0.60
2019-04-28T01:38:07.179Z,0.50
2019-04-28T01:40:41.358Z,0.40
2019-04-28T01:43:14.858Z,0.55
2019-04-28T01:45:50.099Z,0.30
2019-04-28T01:48:23.290Z,0.47
2019-04-28T01:50:56.663Z,0.30
2019-04-28T01:53:30.805Z,0.50
2019-04-28T01:56:04.426Z,0.20
2019-04-28T01:58:37.787Z,0.30
2019-04-28T02:01:11.288Z,0.60
2019-04-28T02:03:46.193Z,0.55
2019-04-28T02:06:19.942Z,0.35
2019-04-28T02:08:53.366Z,0.30
2019-04-28T02:11:29.566Z,0.30
2019-04-28T02:14:02.922Z,0.40
2019-04-28T02:16:36.253Z,0.37
2019-04-28T02:19:10.764Z,0.30
2019-04-28T02:21:45.323Z,0.40
2019-04-28T02:24:20.217Z,0.30
2019-04-28T02:26:53.547Z,0.37
2019-04-28T02:29:30.485Z,0.37
2019-04-28T02:32:05.029Z,0.30
2019-04-28T02:34:40.963Z,0.40
2019-04-28T02:37:13.399Z,0.42
2019-04-28T02:39:46.715Z,0.37
2019-04-28T02:42:20.824Z,0.60
2019-04-28T02:44:54.426Z,0.30
2019-04-28T02:47:27.972Z,0.47
2019-04-28T02:50:01.488Z,0.47
2019-04-28T02:52:34.744Z,0.42
2019-04-28T02:55:08.075Z,0.40
2019-04-28T02:57:41.600Z,0.50
2019-04-28T03:00:15.197Z,0.45
2019-04-28T03:02:51.098Z,0.30
2019-04-28T03:05:23.687Z,0.55
2019-04-28T03:07:56.983Z,0.45
2019-04-28T03:10:31.279Z,0.50
2019-04-28T03:13:06.340Z,0.30
2019-04-28T03:15:41.404Z,0.50
2019-04-28T03:18:14.925Z,0.42
2019-04-28T03:20:48.311Z,0.50
2019-04-28T03:23:21.608Z,0.45
2019-04-28T03:25:54.954Z,0.30
2019-04-28T03:28:30.803Z,0.50
2019-04-28T03:31:35.198Z,0.30
2019-04-28T03:33:47.434Z,0.40
2019-04-28T03:36:16.021Z,0.30
2019-04-28T03:38:50.401Z,0.47
2019-04-28T03:41:24.747Z,0.40
2019-04-28T03:44:00.399Z,0.40
2019-04-28T03:46:34.338Z,0.45
2019-04-28T03:49:10.826Z,0.30
2019-04-28T03:51:44.311Z,0.40
2019-04-28T03:54:20.305Z,0.40
2019-04-28T03:56:53.901Z,0.25
2019-04-28T03:59:27.209Z,0.40
2019-04-28T04:02:03.350Z,0.47
2019-04-28T04:04:37.105Z,0.55
2019-04-28T04:07:11.254Z,0.30
2019-04-28T04:09:44.766Z,0.45
2019-04-28T04:12:21.104Z,0.50
2019-04-28T04:14:53.213Z,0.33
2019-04-28T04:17:26.550Z,0.40
2019-04-28T04:20:01.835Z,0.30
2019-04-28T04:22:35.895Z,0.60
2019-04-28T04:25:12.423Z,0.50
2019-04-28T04:27:44.237Z,0.50
2019-04-28T04:30:17.720Z,0.30
2019-04-28T04:32:51.053Z,0.42
2019-04-28T04:35:24.364Z,0.20
2019-04-28T04:38:00.247Z,0.45
2019-04-28T04:40:34.594Z,0.53
2019-04-28T04:43:07.934Z,0.57
2019-04-28T04:45:41.236Z,0.45
2019-04-28T04:48:14.578Z,0.50
2019-04-28T04:50:50.891Z,0.60
2019-04-28T04:53:26.083Z,0.40
2019-04-28T04:56:00.508Z,0.40
2019-04-28T04:58:34.075Z,0.50
2019-04-28T05:01:10.607Z,0.42
2019-04-28T05:03:44.117Z,0.50
2019-04-28T05:06:17.449Z,0.70
2019-04-28T05:08:50.852Z,0.60
2019-04-28T05:11:24.165Z,0.65
2019-04-28T05:13:59.597Z,0.57
2019-04-28T05:16:33.185Z,0.60
2019-04-28T05:19:10.212Z,0.60
2019-04-28T05:21:43.142Z,0.50
2019-04-28T05:24:17.521Z,0.40
2019-04-28T05:26:51.549Z,0.57
2019-04-28T05:29:26.777Z,0.40
2019-04-28T05:32:03.369Z,0.50
2019-04-28T05:34:35.036Z,0.53
2019-04-28T05:37:08.391Z,0.65
2019-04-28T05:39:41.823Z,0.60
2019-04-28T05:42:15.132Z,0.55
2019-04-28T05:44:49.671Z,0.72
2019-04-28T05:47:23.250Z,0.70
2019-04-28T05:49:56.680Z,0.47
2019-04-28T05:52:30.279Z,0.88
2019-04-28T05:55:04.833Z,0.65
2019-04-28T05:57:39.747Z,0.62
2019-04-28T06:00:13.197Z,1.00
2019-04-28T06:02:55.599Z,0.80
2019-04-28T06:05:21.761Z,0.55
2019-04-28T06:07:55.094Z,0.90
2019-04-28T06:10:29.904Z,0.60
2019-04-28T06:13:04.394Z,1.00
2019-04-28T06:15:39.562Z,1.12
2019-04-28T06:18:12.748Z,0.90
2019-04-28T06:20:46.063Z,1.00
2019-04-28T06:23:19.382Z,1.02
2019-04-28T06:25:52.733Z,0.80
2019-04-28T06:28:26.044Z,0.82
2019-04-28T06:30:59.620Z,0.93
2019-04-28T06:33:34.658Z,1.20
2019-04-28T06:36:08.072Z,1.17
2019-04-28T06:38:41.432Z,1.07
2019-04-28T06:41:14.797Z,0.90
2019-04-28T06:43:48.154Z,0.68
2019-04-28T06:46:21.481Z,1.07
2019-04-28T06:48:56.548Z,1.10
2019-04-28T06:51:29.844Z,1.02
2019-04-28T06:54:03.595Z,0.98
2019-04-28T06:56:36.971Z,1.20
2019-04-28T06:59:11.415Z,0.80
2019-04-28T07:01:44.747Z,0.95
2019-04-28T07:04:18.117Z,1.00
2019-04-28T07:06:51.418Z,0.93
2019-04-28T07:09:24.829Z,0.93
2019-04-28T07:11:58.353Z,0.70
2019-04-28T07:14:31.720Z,0.93
2019-04-28T07:17:05.023Z,0.90
2019-04-28T07:19:38.405Z,0.72
2019-04-28T07:22:11.776Z,0.68
2019-04-28T07:24:45.490Z,0.95
2019-04-28T07:27:18.796Z,0.70
2019-04-28T07:29:52.167Z,0.88
2019-04-28T07:32:27.394Z,0.70
2019-04-28T07:35:01.804Z,0.80
2019-04-28T07:37:35.118Z,0.55
2019-04-28T07:40:08.475Z,0.82
2019-04-28T07:42:41.771Z,0.72
2019-04-28T07:45:14.426Z,0.70
2019-04-28T07:47:47.540Z,0.80
2019-04-28T07:50:20.896Z,0.70
2019-04-28T07:52:54.206Z,0.45
2019-04-28T07:55:27.563Z,0.70
2019-04-28T07:58:01.067Z,0.70
2019-04-28T08:00:34.447Z,0.40
2019-04-28T08:03:07.796Z,0.53
2019-04-28T08:05:41.211Z,0.40
2019-04-28T08:08:14.548Z,0.60
2019-04-28T08:10:47.874Z,0.50
2019-04-28T08:13:21.239Z,0.65
2019-04-28T08:15:54.596Z,0.60
2019-04-28T08:18:27.913Z,0.40
2019-04-28T08:21:01.286Z,0.53
2019-04-28T08:23:46.605Z,0.55
2019-04-28T08:26:09.691Z,0.40
2019-04-28T08:28:44.205Z,0.42
2019-04-28T08:31:17.548Z,0.40
2019-04-28T08:34:01.823Z,0.35
2019-04-28T08:36:25.953Z,0.70
2019-04-28T08:38:59.241Z,0.70
2019-04-28T08:41:32.883Z,0.70
2019-04-28T08:44:06.246Z,0.53
2019-04-28T08:46:39.906Z,0.70
2019-04-28T08:49:13.380Z,0.60
2019-04-28T08:51:47.108Z,0.50
2019-04-28T08:54:20.379Z,0.62
2019-04-28T08:56:53.941Z,0.75
2019-04-28T08:59:27.513Z,0.60
2019-04-28T09:02:00.704Z,0.60
2019-04-28T09:04:34.021Z,0.72
2019-04-28T09:07:07.626Z,0.70
2019-04-28T09:09:40.951Z,0.50
2019-04-28T09:12:14.286Z,0.70
2019-04-28T09:14:48.751Z,0.70
2019-04-28T09:17:22.094Z,0.53
2019-04-28T09:19:55.405Z,0.40
2019-04-28T09:22:29.221Z,0.60
2019-04-28T09:25:03.021Z,0.47
2019-04-28T09:27:36.432Z,0.62
2019-04-28T09:30:10.015Z,0.60
2019-04-28T09:32:43.342Z,0.82
2019-04-28T09:35:16.691Z,0.60
2019-04-28T09:37:50.117Z,0.68
2019-04-28T09:40:23.415Z,0.50
2019-04-28T09:42:56.578Z,0.40
2019-04-28T09:45:30.060Z,0.88
2019-04-28T09:48:03.551Z,0.60
2019-04-28T09:50:36.864Z,0.42
2019-04-28T09:53:10.214Z,0.50
2019-04-28T09:55:43.546Z,0.53
2019-04-28T09:58:17.077Z,0.62
2019-04-28T10:00:50.404Z,0.65
2019-04-28T10:03:25.319Z,0.60
2019-04-28T10:05:58.949Z,0.70
2019-04-28T10:08:32.440Z,0.55
2019-04-28T10:11:07.518Z,0.70
2019-04-28T10:13:40.890Z,0.70
2019-04-28T10:16:14.234Z,0.60
2019-04-28T10:18:47.752Z,0.70
2019-04-28T10:21:21.203Z,0.80
2019-04-28T10:23:54.607Z,1.10
2019-04-28T10:26:27.918Z,0.90
2019-04-28T10:29:01.423Z,0.70
2019-04-28T10:31:34.909Z,0.82
2019-04-28T10:34:08.328Z,0.80
2019-04-28T10:36:41.836Z,0.60
2019-04-28T10:39:15.197Z,1.20
2019-04-28T10:41:48.713Z,1.00
2019-04-28T10:44:22.231Z,1.10
2019-04-28T10:46:55.530Z,1.20
2019-04-28T10:49:28.942Z,1.10
2019-04-28T10:52:02.382Z,1.00
2019-04-28T10:54:35.842Z,1.20
2019-04-28T10:57:09.142Z,0.95
2019-04-28T10:59:42.486Z,0.82
2019-04-28T11:02:16.065Z,1.40
2019-04-28T11:04:49.639Z,1.37
2019-04-28T11:07:22.992Z,1.15
2019-04-28T11:09:56.324Z,1.47
2019-04-28T11:12:29.659Z,1.20
2019-04-28T11:15:04.460Z,1.60
2019-04-28T11:17:37.947Z,1.45
2019-04-28T11:20:11.305Z,1.60
2019-04-28T11:22:44.748Z,2.10
2019-04-28T11:25:18.074Z,2.15
2019-04-28T11:27:51.401Z,1.95
2019-04-28T11:30:24.690Z,2.05
2019-04-28T11:32:58.390Z,2.00
2019-04-28T11:35:31.690Z,2.22
2019-04-28T11:38:06.682Z,2.42
2019-04-28T11:40:40.014Z,2.92
2019-04-28T11:43:14.920Z,3.20
2019-04-28T11:45:48.217Z,2.37
2019-04-28T11:48:21.543Z,2.80
2019-04-28T11:50:55.129Z,2.55
2019-04-28T11:53:28.473Z,2.77
2019-04-28T11:56:01.792Z,2.90
2019-04-28T11:58:35.121Z,3.40
2019-04-28T12:01:08.727Z,2.60
2019-04-28T12:03:42.062Z,2.65
2019-04-28T12:06:15.386Z,3.10
2019-04-28T12:08:48.689Z,2.72
2019-04-28T12:11:22.011Z,2.45
2019-04-28T12:13:55.463Z,2.50
2019-04-28T12:16:28.788Z,3.00
2019-04-28T12:19:02.093Z,2.62
2019-04-28T12:21:35.463Z,3.30
2019-04-28T12:24:08.787Z,2.62
2019-04-28T12:26:42.218Z,2.80
2019-04-28T12:29:15.690Z,2.40
2019-04-28T12:31:49.212Z,2.10
2019-04-28T12:34:22.545Z,2.37
2019-04-28T12:36:56.133Z,2.02
2019-04-28T12:39:30.939Z,2.45
2019-04-28T12:42:04.607Z,2.15
2019-04-28T12:44:37.902Z,2.50
2019-04-28T12:47:11.247Z,2.30
2019-04-28T12:49:44.719Z,2.87
2019-04-28T12:52:18.070Z,2.70
2019-04-28T12:54:51.383Z,2.58
2019-04-28T12:57:24.737Z,2.98
2019-04-28T12:59:58.059Z,2.52
2019-04-28T13:02:31.486Z,2.60
2019-04-28T13:05:04.816Z,3.02
2019-04-28T13:07:38.213Z,2.35
2019-04-28T13:10:11.566Z,2.30
2019-04-28T13:12:44.852Z,2.70
2019-04-28T13:15:18.214Z,2.85
2019-04-28T13:17:51.559Z,2.30
2019-04-28T13:20:24.868Z,2.30
2019-04-28T13:22:58.212Z,2.75
2019-04-28T13:25:33.126Z,2.20
2019-04-28T13:28:06.467Z,2.05
2019-04-28T13:30:39.781Z,1.98
2019-04-28T13:33:13.254Z,2.00
2019-04-28T13:35:46.734Z,1.70
2019-04-28T13:38:20.099Z,1.70
2019-04-28T13:40:53.428Z,1.47
2019-04-28T13:43:28.340Z,2.20
2019-04-28T13:46:01.698Z,1.70
2019-04-28T13:48:35.000Z,1.70
2019-04-28T13:51:08.352Z,1.72
2019-04-28T13:53:41.669Z,1.87
2019-04-28T13:56:15.297Z,1.77
2019-04-28T13:58:48.669Z,1.67
2019-04-28T14:01:22.020Z,2.42
2019-04-28T14:03:55.365Z,1.90
2019-04-28T14:06:28.992Z,2.30
2019-04-28T14:09:04.190Z,1.85
2019-04-28T14:11:39.133Z,1.60
2019-04-28T14:14:12.435Z,1.80
2019-04-28T14:16:45.822Z,1.80
2019-04-28T14:19:19.145Z,1.72
2019-04-28T14:21:52.946Z,1.90
2019-04-28T14:24:26.300Z,1.77
2019-04-28T14:26:59.577Z,1.77
2019-04-28T14:29:32.923Z,1.85
2019-04-28T14:32:06.373Z,1.50
2019-04-28T14:34:39.765Z,1.62
2019-04-28T14:37:13.227Z,1.40
2019-04-28T14:39:46.530Z,1.85
2019-04-28T14:42:19.941Z,2.15
2019-04-28T14:44:53.288Z,2.10
2019-04-28T14:47:26.631Z,1.25
2019-04-28T14:50:02.693Z,2.20
2019-04-28T14:52:36.349Z,1.45
2019-04-28T14:55:09.956Z,1.72
2019-04-28T14:57:43.284Z,2.17
2019-04-28T15:00:16.668Z,1.90
2019-04-28T15:02:50.438Z,2.55
2019-04-28T15:05:23.791Z,1.87
2019-04-28T15:07:57.122Z,2.08
2019-04-28T15:10:30.501Z,1.60
2019-04-28T15:13:03.837Z,1.92
2019-04-28T15:15:37.221Z,1.72
2019-04-28T15:18:10.613Z,1.72
2019-04-28T15:20:46.638Z,1.55
2019-04-28T15:23:19.957Z,2.40
2019-04-28T15:25:53.295Z,1.70
2019-04-28T15:28:26.702Z,1.87
2019-04-28T15:31:00.051Z,1.60
2019-04-28T15:33:33.350Z,1.80
2019-04-28T15:36:07.855Z,2.02
2019-04-28T15:38:41.257Z,1.95
2019-04-28T15:41:21.382Z,2.50
2019-04-28T15:43:49.603Z,1.80
2019-04-28T15:46:22.924Z,1.80
2019-04-28T15:48:56.267Z,1.52
2019-04-28T15:51:30.672Z,2.33
2019-04-28T15:54:04.686Z,1.90
2019-04-28T15:56:37.992Z,1.92
2019-04-28T15:59:12.042Z,1.67
2019-04-28T16:01:45.316Z,1.72
2019-04-28T16:04:18.760Z,1.82
2019-04-28T16:06:52.013Z,1.80
2019-04-28T16:09:25.335Z,2.50
2019-04-28T16:11:58.874Z,2.00
2019-04-28T16:14:32.234Z,1.95
2019-04-28T16:17:05.557Z,2.00
2019-04-28T16:19:38.927Z,2.00
2019-04-28T16:22:12.263Z,2.02
2019-04-28T16:24:45.659Z,2.30
2019-04-28T16:27:18.967Z,2.10
2019-04-28T16:29:52.542Z,2.50
2019-04-28T16:32:25.909Z,1.87
2019-04-28T16:34:59.227Z,2.15
2019-04-28T16:37:38.828Z,2.05
2019-04-28T16:40:09.530Z,2.58
2019-04-28T16:42:43.112Z,2.50
2019-04-28T16:45:18.461Z,2.15
2019-04-28T16:47:50.908Z,2.27
2019-04-28T16:50:24.216Z,2.40
2019-04-28T16:52:59.176Z,2.30
2019-04-28T16:55:32.482Z,1.87
2019-04-28T16:58:06.041Z,1.70
2019-04-28T17:00:39.523Z,2.25
2019-04-28T17:03:12.889Z,1.92
2019-04-28T17:05:46.214Z,2.10
2019-04-28T17:08:19.566Z,2.20
2019-04-28T17:10:52.904Z,2.33
2019-04-28T17:13:26.323Z,2.40
2019-04-28T17:15:59.721Z,2.60
2019-04-28T17:18:33.070Z,2.98
2019-04-28T17:21:06.396Z,2.70
2019-04-28T17:23:39.744Z,2.33
2019-04-28T17:26:15.462Z,2.58
2019-04-28T17:28:49.883Z,2.62
2019-04-28T17:31:23.205Z,2.47
2019-04-28T17:33:56.727Z,2.27
2019-04-28T17:36:30.117Z,2.20
2019-04-28T17:39:06.506Z,2.20
2019-04-28T17:41:41.489Z,2.15
2019-04-28T17:44:17.137Z,2.20
2019-04-28T17:46:50.121Z,1.95
2019-04-28T17:49:23.483Z,2.00
2019-04-28T17:51:56.794Z,1.90
2019-04-28T17:54:30.926Z,1.80
2019-04-28T17:57:04.670Z,2.05
2019-04-28T17:59:38.173Z,1.70
2019-04-28T18:02:11.541Z,1.25
2019-04-28T18:04:44.910Z,1.52
2019-04-28T18:07:18.229Z,1.65
2019-04-28T18:09:51.751Z,1.65
2019-04-28T18:12:25.049Z,1.50
2019-04-28T18:14:58.468Z,1.62
2019-04-28T18:17:31.784Z,1.70
2019-04-28T18:20:05.691Z,1.92
2019-04-28T18:22:40.631Z,1.30
2019-04-28T18:25:14.008Z,1.50
2019-04-28T18:27:47.335Z,1.57
2019-04-28T18:30:20.756Z,1.57
2019-04-28T18:32:54.068Z,1.35
2019-04-28T18:35:27.410Z,1.43
2019-04-28T18:37:59.990Z,1.30
2019-04-28T18:40:33.189Z,1.50
2019-04-28T18:43:06.488Z,1.42
2019-04-28T18:45:39.842Z,1.47
2019-04-28T18:48:13.284Z,1.15
2019-04-28T18:50:46.855Z,1.20
2019-04-28T18:53:20.217Z,1.20
2019-04-28T18:55:53.658Z,1.60
2019-04-28T18:58:27.107Z,1.07
2019-04-28T19:01:00.702Z,1.20
2019-04-28T19:03:35.709Z,1.53
2019-04-28T19:06:09.053Z,1.30
2019-04-28T19:08:49.336Z,1.20
2019-04-28T19:11:17.508Z,1.40
2019-04-28T19:13:50.811Z,1.42
2019-04-28T19:16:24.189Z,1.10
2019-04-28T19:18:57.584Z,1.20
2019-04-28T19:21:30.966Z,1.30
2019-04-28T19:24:04.498Z,1.02
2019-04-28T19:26:37.893Z,1.22
2019-04-28T19:29:12.822Z,0.98
2019-04-28T19:31:46.171Z,1.30
2019-04-28T19:34:19.671Z,1.30
2019-04-28T19:36:52.963Z,1.20
2019-04-28T19:39:26.313Z,1.30
2019-04-28T19:41:59.603Z,1.30
2019-04-28T19:44:33.002Z,1.32
2019-04-28T19:47:06.666Z,1.20
2019-04-28T19:49:40.137Z,1.40
2019-04-28T19:52:13.808Z,1.12
2019-04-28T19:54:48.486Z,1.40
2019-04-28T19:57:21.851Z,1.27
2019-04-28T19:59:55.149Z,1.25
2019-04-28T20:02:28.483Z,1.32
2019-04-28T20:05:01.808Z,1.30
2019-04-28T20:07:35.332Z,1.12
2019-04-28T20:10:09.216Z,1.30
2019-04-28T20:12:43.339Z,1.60
2019-04-28T20:15:16.775Z,1.20
2019-04-28T20:17:50.506Z,1.40
2019-04-28T20:20:23.908Z,1.47
2019-04-28T20:22:57.487Z,1.17
2019-04-28T20:25:30.887Z,1.83
2019-04-28T20:28:04.319Z,1.40
2019-04-28T20:30:37.704Z,1.75
2019-04-28T20:33:11.498Z,1.30
2019-04-28T20:35:44.836Z,2.27
2019-04-28T20:38:18.455Z,2.27
2019-04-28T20:40:51.826Z,2.42
2019-04-28T20:43:26.541Z,2.10
2019-04-28T20:45:59.850Z,2.02
2019-04-28T20:48:33.238Z,2.00
2019-04-28T20:51:06.603Z,2.20
2019-04-28T20:53:39.904Z,2.05
2019-04-28T20:56:13.213Z,2.30
2019-04-28T20:58:49.800Z,2.08
2019-04-28T21:01:23.109Z,2.52
2019-04-28T21:03:56.451Z,1.92
2019-04-28T21:06:29.771Z,1.60
2019-04-28T21:09:05.065Z,2.10
2019-04-28T21:11:39.359Z,1.60
2019-04-28T21:14:12.695Z,1.90
2019-04-28T21:16:46.991Z,1.85
2019-04-28T21:19:20.291Z,2.22
2019-04-28T21:21:53.704Z,1.70
2019-04-28T21:24:27.102Z,1.77
2019-04-28T21:27:00.467Z,1.55
2019-04-28T21:29:35.480Z,1.60
2019-04-28T21:32:08.897Z,1.42
2019-04-28T21:34:42.573Z,1.70
2019-04-28T21:37:18.384Z,1.55
2019-04-28T21:39:51.063Z,1.40
2019-04-28T21:42:24.692Z,1.90
2019-04-28T21:44:58.173Z,1.45
2019-04-28T21:47:31.507Z,1.57
2019-04-28T21:50:05.649Z,1.57
2019-04-28T21:52:39.017Z,1.47
2019-04-28T21:55:12.337Z,1.42
2019-04-28T21:57:47.310Z,1.65
2019-04-28T22:00:20.934Z,1.80
2019-04-28T22:03:11.825Z,1.60
2019-04-28T22:05:45.144Z,1.57
2019-04-28T22:08:18.584Z,1.00
2019-04-28T22:10:51.978Z,1.55
2019-04-28T22:13:25.311Z,1.15
2019-04-28T22:15:58.636Z,1.52
2019-04-28T22:18:32.026Z,1.40
2019-04-28T22:21:05.343Z,1.60
2019-04-28T22:23:38.676Z,1.55
2019-04-28T22:26:11.965Z,1.55
2019-04-28T22:28:45.483Z,1.57
2019-04-28T22:31:18.843Z,1.30
2019-04-28T22:33:52.364Z,1.30
2019-04-28T22:36:25.681Z,1.60
2019-04-28T22:38:59.035Z,1.42
2019-04-28T22:41:33.419Z,1.27
2019-04-28T22:44:06.767Z,1.17
2019-04-28T22:46:40.147Z,1.65
2019-04-28T22:49:13.479Z,1.20
2019-04-28T22:51:46.854Z,1.72
2019-04-28T22:54:20.021Z,1.35
2019-04-28T22:56:53.313Z,1.37
2019-04-28T22:59:26.658Z,1.87
2019-04-28T23:02:00.013Z,1.50
2019-04-28T23:04:33.502Z,1.70
2019-04-28T23:07:06.949Z,1.52
2019-04-28T23:09:40.321Z,1.60
2019-04-28T23:12:14.872Z,1.60
2019-04-28T23:14:48.507Z,1.40
2019-04-28T23:17:21.814Z,1.60
2019-04-28T23:19:55.517Z,1.60
2019-04-28T23:22:28.813Z,1.50
2019-04-28T23:25:02.800Z,1.70
2019-04-28T23:27:36.122Z,1.57
2019-04-28T23:30:09.535Z,1.82
2019-04-28T23:32:42.863Z,1.65
2019-04-28T23:35:16.180Z,1.80
2019-04-28T23:37:49.365Z,1.67
2019-04-28T23:40:22.854Z,1.82
2019-04-28T23:42:56.252Z,1.50
2019-04-28T23:45:29.685Z,1.80
2019-04-28T23:48:03.186Z,1.57
2019-04-28T23:50:36.667Z,1.65
2019-04-28T23:53:10.017Z,1.72
2019-04-28T23:55:43.358Z,1.85
2019-04-28T23:58:16.712Z,1.60
